Volkel Air Base

EHVK · 北布拉班特省, 荷兰

2024年3月2日 19:002024年3月3日 07:00有效
时间
星期六
19:00
40%
星期六
20:00
40%
星期六
21:00
40%
星期六
22:00
40%
星期六
23:00
40%
星期日
00:00
40%
星期日
01:00
星期日
02:00
星期日
03:00
星期日
04:00
星期日
05:00
星期日
06:00
代码
VFR
VFR
VFR
VFR
VFR
VFR
VFR
VFR
VFR
VFR
VFR
VFR
天气
天空晴朗
天空晴朗
天空晴朗
天空晴朗
天空晴朗
天空晴朗
天空晴朗
天空晴朗
天空晴朗
天空晴朗
天空晴朗
天空晴朗
能见度
10 km+
10 km+
10 km+
10 km+
10 km+
10 km+
10 km+
10 km+
10 km+
10 km+
10 km+
10 km+
天花板
-
-
-
-
-
-
-
-
-
-
-
-
130°
130°
130°
130°
130°
130°
130°
130°
130°
130°
130°
130°
130°
130°
130°
130°
130°
130°
130°
130°
130°
130°
130°
130°
速度
10 kt
10 kt
10 kt
10 kt
10 kt
10 kt
10 kt
10 kt
10 kt
10 kt
10 kt
10 kt
阵风
温度/星期日

原版的

TAF EHVK 021744Z 0218/0306 13010KT CAVOK
PROB40 TEMPO 0218/0224 SCT030 SCT045CB

TAF Volkel Air Base

Volkel Air Base是,荷兰中的中型机场。 该机场位于纬度51,65640和经度5,70862。 该机场有2条跑道: 6R/24L 和 6L/24R. 本场的ICAO机场代码为EHVK。 该机场的IATA代码为UDE。 机场在Amsterdam FIR中。

该航空气象观测是针对Volkel Air Base在2024年3月2日 18:44, 当地时间进行的。 从2024年3月2日 19:00到2024年3月3日 07:00, 当地时间有效.

预报

  • 在星期六 19:00和星期日 07:00之间

    • 风: 风来自130°方向,速度为10 kt。
    • CAVOK: 天气为CAVOK。这意味着在5.000 ft或MSA(最低安全高度)以下(以较高者为准)以下没有云。这也意味着没有观测到积雨云或高耸的积云,可见度为10 km 或者更多或更高。此外,不会有雾,降雨或其他重要天气。
  • 暂时在星期六 19:00和星期日 01:00之间 ({一个机会)

    • 乌云: 疏云,零星散落的云朵在3.000 ft的高度 和 疏云,零星散落的云朵 积雨云在4.500 ft的高度.

白天

今天,太阳从07:18升起,在18:19降落。 这适用于Volkel Air Base,世界夏令时可能有所不同。 当地时间与世界标准时间之间的时差为+1 小时。 当前,没有夏令时有效。